createdAt,value
2019-03-18T15:57:13.879Z,94.83
2019-03-18T15:59:58.851Z,94.53
2019-03-18T16:05:32.869Z,87.57
2019-03-18T16:08:14.217Z,87.23
2019-03-18T16:13:50.658Z,81.00
2019-03-18T16:19:20.021Z,78.20
2019-03-18T16:24:52.140Z,78.13
2019-03-18T16:30:22.535Z,71.93
2019-03-18T16:33:06.131Z,73.50
2019-03-18T16:35:52.597Z,78.23
2019-03-18T16:38:34.213Z,77.30
2019-03-18T16:44:02.603Z,73.60
2019-03-18T16:46:43.499Z,74.17
2019-03-18T16:49:25.143Z,74.33
2019-03-18T16:52:06.383Z,74.70
2019-03-18T16:54:47.560Z,76.27
2019-03-18T16:57:28.293Z,74.00
2019-03-18T17:00:09.652Z,81.93
2019-03-18T17:02:50.861Z,73.13
2019-03-18T17:05:31.901Z,74.47
2019-03-18T17:08:12.362Z,73.13
2019-03-18T17:10:53.562Z,69.60
2019-03-18T17:13:34.281Z,73.20
2019-03-18T17:16:15.609Z,67.33
2019-03-18T17:19:08.024Z,68.67
2019-03-18T17:33:14.687Z,69.07
2019-03-18T17:35:55.536Z,73.50
2019-03-18T17:38:36.210Z,67.60
2019-03-18T17:41:16.553Z,68.90
2019-03-18T17:43:57.346Z,69.40
2019-03-18T17:46:46.085Z,68.07
2019-03-18T17:49:28.863Z,66.33
2019-03-18T17:52:10.737Z,72.17
2019-03-18T17:54:52.085Z,70.00
2019-03-18T17:57:34.036Z,69.17
2019-03-18T18:00:15.609Z,70.10
2019-03-18T18:02:56.258Z,64.37
2019-03-18T18:05:37.294Z,62.87
2019-03-18T18:08:18.488Z,63.83
2019-03-18T18:10:59.933Z,61.30
2019-03-18T18:13:41.432Z,60.97
2019-03-18T18:16:26.605Z,61.30
2019-03-18T18:19:10.251Z,61.40
2019-03-18T18:21:51.074Z,59.83
2019-03-18T18:24:32.802Z,61.83
2019-03-18T18:27:14.742Z,63.30
2019-03-18T18:29:55.734Z,59.97
2019-03-18T18:32:36.463Z,58.53
2019-03-18T18:35:16.968Z,57.27
2019-03-18T18:37:58.298Z,55.80
2019-03-18T18:40:40.011Z,61.93
2019-03-18T18:43:20.948Z,57.77
2019-03-18T18:46:01.299Z,55.67
2019-03-18T18:48:42.388Z,57.70
2019-03-18T18:51:22.922Z,60.77
2019-03-18T18:54:04.137Z,62.40
2019-03-18T18:56:44.973Z,59.67
2019-03-18T18:59:25.747Z,58.57
2019-03-18T19:02:07.268Z,61.17
2019-03-18T19:04:48.303Z,58.60
2019-03-18T19:07:29.461Z,59.17
2019-03-18T19:10:10.528Z,55.27
2019-03-18T19:12:51.495Z,54.80
2019-03-18T19:15:32.787Z,56.17
2019-03-18T19:18:13.176Z,54.77
2019-03-18T19:20:54.047Z,49.77
2019-03-18T19:23:38.044Z,53.40
2019-03-18T19:26:17.263Z,53.13
2019-03-18T19:28:57.987Z,55.43
2019-03-18T19:31:38.522Z,56.10
2019-03-18T19:34:19.490Z,51.70
2019-03-18T19:37:00.450Z,48.70
2019-03-18T19:39:41.748Z,56.47
2019-03-18T19:42:23.055Z,56.73
2019-03-18T19:45:04.300Z,54.87
2019-03-18T19:47:45.566Z,59.00
2019-03-18T19:50:26.629Z,61.37
2019-03-18T19:53:07.581Z,59.23
2019-03-18T19:55:48.830Z,57.77
2019-03-18T19:58:29.449Z,55.53
2019-03-18T20:01:09.901Z,51.63
2019-03-18T20:03:50.785Z,51.93
2019-03-18T20:06:31.963Z,50.60
2019-03-18T20:09:13.027Z,48.23
2019-03-18T20:11:53.305Z,52.40
2019-03-18T20:14:34.522Z,52.97
2019-03-18T20:17:15.990Z,47.47
2019-03-18T20:19:56.442Z,48.73
2019-03-18T20:22:36.773Z,48.93
2019-03-18T20:25:17.813Z,47.80
2019-03-18T20:27:58.182Z,48.20
2019-03-18T20:30:39.323Z,48.10
2019-03-18T20:33:20.615Z,47.90
2019-03-18T20:36:01.403Z,50.80
2019-03-18T20:38:42.856Z,50.50
2019-03-18T20:41:23.689Z,46.23
2019-03-18T20:44:04.761Z,44.43
2019-03-18T20:46:45.273Z,48.73
2019-03-18T20:49:26.186Z,47.13
2019-03-18T20:52:16.404Z,49.67
2019-03-18T20:54:48.945Z,44.23
2019-03-18T20:57:29.882Z,43.50
2019-03-18T21:00:10.536Z,41.00
2019-03-18T21:02:51.387Z,52.87
2019-03-18T21:05:33.095Z,54.50
2019-03-18T21:08:13.935Z,51.43
2019-03-18T21:10:55.065Z,53.57
2019-03-18T21:13:35.968Z,45.97
2019-03-18T21:16:16.884Z,46.00
2019-03-18T21:18:57.244Z,44.23
2019-03-18T21:21:38.285Z,52.37
2019-03-18T21:24:22.993Z,56.53
2019-03-18T21:27:00.455Z,59.13
2019-03-18T21:29:41.403Z,52.20
2019-03-18T21:32:22.553Z,56.73
2019-03-18T21:35:03.103Z,57.53
2019-03-18T21:37:44.283Z,57.50
2019-03-18T21:40:25.535Z,60.17
2019-03-18T21:43:06.857Z,61.50
2019-03-18T21:45:47.803Z,53.90
2019-03-18T21:48:28.356Z,49.13
2019-03-18T21:51:09.403Z,48.00
2019-03-18T21:53:50.363Z,55.30
2019-03-18T21:56:31.657Z,55.80
2019-03-18T21:59:12.921Z,52.80
2019-03-18T22:01:53.886Z,46.10
2019-03-18T22:04:35.255Z,41.37
2019-03-18T22:07:15.872Z,43.90
2019-03-18T22:09:56.776Z,50.67
2019-03-18T22:12:37.533Z,54.67
2019-03-18T22:15:18.681Z,48.90
2019-03-18T22:17:59.896Z,46.03
2019-03-18T22:20:40.583Z,43.80
2019-03-18T22:23:21.007Z,43.17
2019-03-18T22:26:01.895Z,36.63
2019-03-18T22:28:43.166Z,40.47
2019-03-18T22:31:24.127Z,42.03
2019-03-18T22:34:05.095Z,36.37
2019-03-18T22:36:45.865Z,35.83
2019-03-18T22:39:26.703Z,42.00
2019-03-18T22:42:07.238Z,35.13
2019-03-18T22:44:47.972Z,43.63
2019-03-18T22:47:28.615Z,50.07
2019-03-18T22:50:09.251Z,44.57
2019-03-18T22:52:49.654Z,44.20
2019-03-18T22:55:30.240Z,39.50
2019-03-18T22:58:10.563Z,50.87
2019-03-18T23:00:51.226Z,41.63
2019-03-18T23:03:32.151Z,43.20
2019-03-18T23:06:12.510Z,69.60
2019-03-18T23:08:52.833Z,41.13
2019-03-18T23:11:33.723Z,47.40
2019-03-18T23:14:15.347Z,49.83
2019-03-18T23:16:56.943Z,42.10
2019-03-18T23:19:37.896Z,44.37
2019-03-18T23:22:18.535Z,39.40
2019-03-18T23:25:07.002Z,34.93
2019-03-18T23:27:40.131Z,39.23
2019-03-18T23:30:20.408Z,51.87
2019-03-18T23:33:01.706Z,52.33
2019-03-18T23:35:43.344Z,59.97
2019-03-18T23:38:24.923Z,60.47
2019-03-18T23:41:05.883Z,56.57
2019-03-18T23:43:46.864Z,59.53
2019-03-18T23:46:27.576Z,55.50
2019-03-18T23:49:08.287Z,54.70
2019-03-18T23:51:48.633Z,50.63
2019-03-18T23:54:29.333Z,43.33
2019-03-18T23:57:09.627Z,51.00
2019-03-18T23:59:49.959Z,60.30
